createdAt,value
2022-12-04T00:01:42.136Z,98533.00
2022-12-04T00:04:08.327Z,98527.97
2022-12-04T00:06:34.411Z,98522.97
2022-12-04T00:09:00.510Z,98522.63
2022-12-04T00:11:26.610Z,98532.09
2022-12-04T00:13:52.701Z,98523.78
2022-12-04T00:16:18.850Z,98519.72
2022-12-04T00:18:45.008Z,98526.78
2022-12-04T00:21:11.113Z,98522.34
2022-12-04T00:23:37.223Z,98519.63
2022-12-04T00:26:03.364Z,98524.72
2022-12-04T00:28:29.468Z,98519.91
2022-12-04T00:30:55.572Z,98514.41
2022-12-04T00:33:21.713Z,98517.97
2022-12-04T00:35:47.805Z,98515.25
2022-12-04T00:38:13.909Z,98515.72
2022-12-04T00:40:40.015Z,98511.34
2022-12-04T00:43:06.115Z,98507.75
2022-12-04T00:45:32.240Z,98503.78
2022-12-04T00:47:58.374Z,98505.78
2022-12-04T00:50:24.472Z,98496.19
2022-12-04T00:52:50.576Z,98506.06
2022-12-04T00:55:16.690Z,98496.31
2022-12-04T00:57:42.788Z,98502.44
2022-12-04T01:00:08.873Z,98505.84
2022-12-04T01:02:35.016Z,98500.78
2022-12-04T01:05:01.165Z,98495.84
2022-12-04T01:07:27.304Z,98499.28
2022-12-04T01:09:53.745Z,98502.22
2022-12-04T01:12:21.051Z,98504.00
2022-12-04T01:14:47.345Z,98499.94
2022-12-04T01:17:13.459Z,98496.59
2022-12-04T01:19:39.551Z,98501.59
2022-12-04T01:22:05.657Z,98504.94
2022-12-04T01:24:31.774Z,98506.50
2022-12-04T01:26:57.857Z,98508.47
2022-12-04T01:29:23.942Z,98502.63
2022-12-04T01:31:50.095Z,98502.72
2022-12-04T01:34:16.193Z,98496.59
2022-12-04T01:36:42.293Z,98502.38
2022-12-04T01:39:08.412Z,98504.16
2022-12-04T01:41:34.498Z,98509.25
2022-12-04T01:44:00.589Z,98502.47
2022-12-04T01:46:26.759Z,98500.97
2022-12-04T01:48:52.901Z,98498.84
2022-12-04T01:51:18.986Z,98493.78
2022-12-04T01:53:45.115Z,98492.38
2022-12-04T01:56:11.202Z,98489.41
2022-12-04T01:58:37.300Z,98484.97
2022-12-04T02:01:08.225Z,98478.38
2022-12-04T02:03:34.749Z,98481.44
2022-12-04T02:06:00.849Z,98488.06
2022-12-04T02:08:26.965Z,98490.19
2022-12-04T02:10:53.056Z,98483.69
2022-12-04T02:13:19.161Z,98486.38
2022-12-04T02:15:45.263Z,98489.63
2022-12-04T02:18:11.359Z,98479.50
2022-12-04T02:20:37.443Z,98488.69
2022-12-04T02:23:03.591Z,98484.22
2022-12-04T02:25:29.698Z,98488.94
2022-12-04T02:27:55.820Z,98483.13
2022-12-04T02:30:22.039Z,98483.56
2022-12-04T02:32:48.252Z,98481.41
2022-12-04T02:35:14.342Z,98478.09
2022-12-04T02:37:40.436Z,98486.97
2022-12-04T02:40:06.531Z,98489.56
2022-12-04T02:42:32.655Z,98496.78
2022-12-04T02:44:58.785Z,98488.97
2022-12-04T02:47:24.872Z,98492.84
2022-12-04T02:49:50.968Z,98482.78
2022-12-04T02:52:17.076Z,98483.25
2022-12-04T02:54:43.164Z,98484.25
2022-12-04T02:57:09.252Z,98472.81
2022-12-04T02:59:35.362Z,98488.03
2022-12-04T03:02:01.566Z,98484.78
2022-12-04T03:04:27.701Z,98486.81
2022-12-04T03:06:53.814Z,98478.47
2022-12-04T03:09:19.909Z,98482.16
2022-12-04T03:11:46.008Z,98488.84
2022-12-04T03:14:12.174Z,98485.50
2022-12-04T03:16:38.308Z,98496.03
2022-12-04T03:19:04.401Z,98497.56
2022-12-04T03:21:30.511Z,98489.22
2022-12-04T03:23:56.617Z,98485.63
2022-12-04T03:26:22.738Z,98497.56
2022-12-04T03:28:48.844Z,98478.03
2022-12-04T03:31:14.977Z,98482.47
2022-12-04T03:33:41.157Z,98476.13
2022-12-04T03:36:07.336Z,98490.69
2022-12-04T03:38:33.411Z,98491.56
2022-12-04T03:40:59.486Z,98488.19
2022-12-04T03:43:25.605Z,98479.06
2022-12-04T03:45:51.771Z,98484.00
2022-12-04T03:48:22.644Z,98481.06
2022-12-04T03:50:49.300Z,98479.22
2022-12-04T03:53:15.374Z,98476.06
2022-12-04T03:55:41.459Z,98480.31
2022-12-04T03:58:07.577Z,98481.63
2022-12-04T04:00:33.663Z,98484.16
2022-12-04T04:02:59.793Z,98482.75
2022-12-04T04:05:25.938Z,98489.91
2022-12-04T04:07:52.050Z,98498.25
2022-12-04T04:10:18.169Z,98499.28
2022-12-04T04:12:44.258Z,98506.69
2022-12-04T04:15:10.369Z,98501.22
2022-12-04T04:17:38.778Z,98502.25
2022-12-04T04:20:05.502Z,98507.09
2022-12-04T04:22:31.605Z,98496.28
2022-12-04T04:24:57.701Z,98496.84
2022-12-04T04:27:23.804Z,98496.56
2022-12-04T04:29:52.611Z,98495.53
2022-12-04T04:32:19.003Z,98489.50
2022-12-04T04:34:45.110Z,98493.13
2022-12-04T04:37:11.209Z,98494.53
2022-12-04T04:39:37.287Z,98487.19
2022-12-04T04:42:03.397Z,98488.03
2022-12-04T04:44:29.488Z,98488.31
2022-12-04T04:46:55.665Z,98482.91
2022-12-04T04:49:21.809Z,98479.75
2022-12-04T04:51:47.893Z,98481.63
2022-12-04T04:54:13.986Z,98480.09
2022-12-04T04:56:40.097Z,98490.50
2022-12-04T04:59:06.186Z,98477.91
2022-12-04T05:01:32.329Z,98477.31
2022-12-04T05:03:58.482Z,98487.16
2022-12-04T05:06:24.568Z,98477.91
2022-12-04T05:08:50.660Z,98473.72
2022-12-04T05:11:16.764Z,98481.22
2022-12-04T05:13:42.869Z,98472.88
2022-12-04T05:16:09.018Z,98466.59
2022-12-04T05:18:35.143Z,98469.72
2022-12-04T05:21:01.241Z,98473.44
2022-12-04T05:23:27.341Z,98475.94
2022-12-04T05:25:53.456Z,98468.63
2022-12-04T05:28:19.545Z,98474.38
2022-12-04T05:30:45.633Z,98468.03
2022-12-04T05:33:11.753Z,98469.69
2022-12-04T05:35:37.849Z,98462.94
2022-12-04T05:38:03.953Z,98471.94
2022-12-04T05:40:30.061Z,98463.97
2022-12-04T05:42:56.146Z,98458.13
2022-12-04T05:45:22.250Z,98459.13
2022-12-04T05:47:48.354Z,98470.47
2022-12-04T05:50:14.446Z,98471.50
2022-12-04T05:52:40.533Z,98468.91
2022-12-04T05:55:07.181Z,98470.19
2022-12-04T05:57:33.270Z,98466.91
2022-12-04T05:59:59.365Z,98461.06
2022-12-04T06:02:25.567Z,98470.00
2022-12-04T06:04:51.695Z,98474.28
2022-12-04T06:07:18.045Z,98476.34
2022-12-04T06:09:44.229Z,98474.94
2022-12-04T06:12:10.323Z,98466.75
2022-12-04T06:14:39.806Z,98471.56
2022-12-04T06:17:06.212Z,98473.53
2022-12-04T06:19:32.309Z,98473.03
2022-12-04T06:21:58.412Z,98470.00
2022-12-04T06:24:24.819Z,98476.69
2022-12-04T06:27:25.746Z,98478.16
2022-12-04T06:29:37.012Z,98473.13
2022-12-04T06:32:03.143Z,98467.31
2022-12-04T06:34:29.313Z,98467.94
2022-12-04T06:36:55.414Z,98470.44
2022-12-04T06:39:21.505Z,98476.28
2022-12-04T06:41:47.731Z,98473.69
2022-12-04T06:44:13.942Z,98471.75
2022-12-04T06:46:45.095Z,98483.72
2022-12-04T06:49:12.744Z,98487.34
2022-12-04T06:51:38.865Z,98486.31
2022-12-04T06:54:04.968Z,98494.88
2022-12-04T06:56:31.068Z,98488.09
2022-12-04T06:58:58.022Z,98487.53
2022-12-04T07:01:24.207Z,98487.13
2022-12-04T07:03:51.795Z,98489.59
2022-12-04T07:06:18.112Z,98487.28
2022-12-04T07:08:44.210Z,98473.25
2022-12-04T07:11:10.294Z,98476.75
2022-12-04T07:13:36.418Z,98479.19
2022-12-04T07:16:02.559Z,98469.63
2022-12-04T07:18:28.674Z,98477.97
2022-12-04T07:20:54.793Z,98486.59
2022-12-04T07:23:20.880Z,98486.09
2022-12-04T07:25:46.959Z,98484.75
2022-12-04T07:28:13.127Z,98494.47
2022-12-04T07:30:39.215Z,98492.34
2022-12-04T07:33:05.299Z,98495.47
2022-12-04T07:35:31.412Z,98491.50
2022-12-04T07:37:57.507Z,98491.03
2022-12-04T07:40:23.604Z,98482.22
2022-12-04T07:42:49.712Z,98482.47
2022-12-04T07:45:15.813Z,98488.75
2022-12-04T07:47:41.909Z,98476.47
2022-12-04T07:50:08.030Z,98484.50
2022-12-04T07:52:34.111Z,98489.38
2022-12-04T07:55:00.197Z,98485.19
2022-12-04T07:57:26.294Z,98495.38
2022-12-04T07:59:52.482Z,98496.78
2022-12-04T08:02:18.705Z,98500.16
2022-12-04T08:04:44.873Z,98494.63
2022-12-04T08:07:11.040Z,98498.91
2022-12-04T08:09:37.128Z,98498.38
2022-12-04T08:12:03.244Z,98498.31
2022-12-04T08:14:29.340Z,98499.16
2022-12-04T08:16:55.528Z,98501.41
2022-12-04T08:19:21.726Z,98501.06
2022-12-04T08:21:47.823Z,98503.50
2022-12-04T08:24:13.924Z,98508.91
2022-12-04T08:26:40.044Z,98517.75
2022-12-04T08:29:06.134Z,98519.13
2022-12-04T08:31:32.288Z,98521.09
2022-12-04T08:33:58.473Z,98519.25
2022-12-04T08:36:24.572Z,98517.56
2022-12-04T08:38:50.666Z,98519.78
2022-12-04T08:41:16.780Z,98516.44
2022-12-04T08:43:42.862Z,98511.56
2022-12-04T08:46:09.008Z,98514.78
2022-12-04T08:48:35.143Z,98514.81
2022-12-04T08:51:01.234Z,98514.06
2022-12-04T08:53:27.331Z,98517.72
2022-12-04T08:55:53.477Z,98509.72
2022-12-04T08:58:19.574Z,98507.88
2022-12-04T09:00:45.683Z,98510.31
2022-12-04T09:03:12.321Z,98514.19
2022-12-04T09:05:38.408Z,98522.50
2022-12-04T09:08:04.615Z,98507.72
2022-12-04T09:10:30.850Z,98522.59
2022-12-04T09:12:56.955Z,98514.66
2022-12-04T09:15:23.052Z,98515.78
2022-12-04T09:17:49.185Z,98506.66
2022-12-04T09:20:15.275Z,98509.59
2022-12-04T09:23:02.691Z,98503.19
2022-12-04T09:25:27.474Z,98519.59
2022-12-04T09:27:53.576Z,98511.25
2022-12-04T09:30:19.678Z,98522.72
2022-12-04T09:32:45.783Z,98521.34
2022-12-04T09:35:11.870Z,98522.91
2022-12-04T09:37:37.973Z,98519.13
2022-12-04T09:40:04.075Z,98524.25
2022-12-04T09:42:30.158Z,98523.72
2022-12-04T09:44:56.250Z,98533.84
2022-12-04T09:47:22.346Z,98538.31
2022-12-04T09:49:48.439Z,98538.03
2022-12-04T09:52:20.340Z,98531.56
2022-12-04T09:54:47.904Z,98534.75
2022-12-04T09:57:14.000Z,98542.09
2022-12-04T09:59:40.100Z,98535.84
2022-12-04T10:02:06.278Z,98539.50
2022-12-04T10:04:32.386Z,98529.47
2022-12-04T10:06:58.469Z,98526.75
2022-12-04T10:09:24.592Z,98524.38
2022-12-04T10:11:50.676Z,98519.47
2022-12-04T10:14:16.769Z,98518.34
2022-12-04T10:16:42.864Z,98521.06
2022-12-04T10:19:08.967Z,98509.78
2022-12-04T10:21:35.069Z,98525.44
2022-12-04T10:24:01.197Z,98520.53
2022-12-04T10:26:27.299Z,98517.38
2022-12-04T10:28:55.394Z,98514.97
2022-12-04T10:31:21.841Z,98508.72
2022-12-04T10:33:48.005Z,98504.19
2022-12-04T10:36:14.121Z,98499.09
2022-12-04T10:38:40.291Z,98499.75
2022-12-04T10:41:10.249Z,98497.66
2022-12-04T10:43:40.699Z,98495.75
2022-12-04T10:46:06.835Z,98490.84
2022-12-04T10:48:32.981Z,98493.25
2022-12-04T10:50:59.064Z,98473.97
2022-12-04T10:53:25.195Z,98472.25
2022-12-04T10:55:51.291Z,98468.84
2022-12-04T10:58:17.393Z,98466.00
2022-12-04T11:00:43.533Z,98462.25
2022-12-04T11:03:09.707Z,98462.97
2022-12-04T11:05:35.882Z,98465.19
2022-12-04T11:08:02.120Z,98462.41
2022-12-04T11:10:28.241Z,98463.91
2022-12-04T11:12:54.327Z,98453.47
2022-12-04T11:15:20.467Z,98452.34
2022-12-04T11:17:46.568Z,98450.28
2022-12-04T11:20:12.662Z,98444.09
2022-12-04T11:22:38.778Z,98458.22
2022-12-04T11:25:04.872Z,98455.31
2022-12-04T11:27:30.959Z,98460.66
2022-12-04T11:29:57.436Z,98466.88
2022-12-04T11:32:23.786Z,98467.94
2022-12-04T11:34:49.880Z,98451.72
2022-12-04T11:37:15.985Z,98449.69
2022-12-04T11:39:42.103Z,98448.66
2022-12-04T11:42:08.211Z,98447.75
2022-12-04T11:44:34.378Z,98442.03
2022-12-04T11:47:00.517Z,98435.84
2022-12-04T11:49:26.761Z,98439.50
2022-12-04T11:51:52.875Z,98437.97
2022-12-04T11:54:18.950Z,98433.38
2022-12-04T11:56:45.027Z,98438.72
2022-12-04T11:59:11.135Z,98419.31
2022-12-04T12:01:37.272Z,98419.16
2022-12-04T12:04:03.418Z,98411.50
2022-12-04T12:06:29.576Z,98412.69
2022-12-04T12:08:55.673Z,98408.97
2022-12-04T12:11:21.751Z,98412.09
2022-12-04T12:13:48.197Z,98410.41
2022-12-04T12:16:14.326Z,98421.53
2022-12-04T12:18:40.452Z,98403.59
2022-12-04T12:21:06.583Z,98404.63
2022-12-04T12:23:32.680Z,98412.66
2022-12-04T12:25:58.822Z,98419.34
2022-12-04T12:28:24.932Z,98401.34
2022-12-04T12:30:51.052Z,98403.88
2022-12-04T12:33:17.144Z,98401.91
2022-12-04T12:35:43.244Z,98403.91
2022-12-04T12:38:09.339Z,98399.25
2022-12-04T12:40:35.420Z,98396.91
2022-12-04T12:43:01.625Z,98401.41
2022-12-04T12:45:27.756Z,98400.75
2022-12-04T12:47:53.873Z,98396.81
2022-12-04T12:50:20.021Z,98388.19
2022-12-04T12:52:46.198Z,98386.19
2022-12-04T12:55:12.313Z,98370.88
2022-12-04T12:57:38.443Z,98354.78
2022-12-04T13:00:04.569Z,98351.66
2022-12-04T13:02:30.699Z,98362.06
2022-12-04T13:04:56.868Z,98363.97
2022-12-04T13:07:22.970Z,98352.47
2022-12-04T13:09:49.081Z,98356.66
2022-12-04T13:12:15.182Z,98348.13
2022-12-04T13:14:45.943Z,98354.34
2022-12-04T13:17:14.844Z,98341.31
2022-12-04T13:19:41.190Z,98337.00
2022-12-04T13:22:07.373Z,98344.38
2022-12-04T13:24:33.521Z,98342.75
2022-12-04T13:26:59.668Z,98360.19
2022-12-04T13:29:25.768Z,98364.31
2022-12-04T13:31:51.931Z,98374.25
2022-12-04T13:34:18.130Z,98373.28
2022-12-04T13:36:44.224Z,98385.09
2022-12-04T13:39:10.436Z,98384.16
2022-12-04T13:41:36.555Z,98390.59
2022-12-04T13:44:07.061Z,98389.25
2022-12-04T13:46:33.437Z,98397.00
2022-12-04T13:48:59.898Z,98402.50
2022-12-04T13:51:26.003Z,98402.13
2022-12-04T13:53:52.095Z,98395.38
2022-12-04T13:56:18.211Z,98400.19
2022-12-04T13:58:44.306Z,98396.53
2022-12-04T14:01:10.464Z,98401.03
2022-12-04T14:03:36.617Z,98406.38
2022-12-04T14:06:02.754Z,98402.94
2022-12-04T14:08:28.886Z,98403.97
2022-12-04T14:10:54.996Z,98408.91
2022-12-04T14:13:21.079Z,98409.19
2022-12-04T14:15:47.164Z,98399.84
2022-12-04T14:18:13.354Z,98403.19
2022-12-04T14:20:39.457Z,98397.31
2022-12-04T14:23:05.548Z,98397.50
2022-12-04T14:25:31.661Z,98390.66
2022-12-04T14:27:57.740Z,98392.50
2022-12-04T14:30:23.870Z,98382.50
2022-12-04T14:32:50.000Z,98373.94
2022-12-04T14:35:16.104Z,98374.66
2022-12-04T14:37:42.198Z,98369.84
2022-12-04T14:40:08.320Z,98373.66
2022-12-04T14:42:34.401Z,98375.50
2022-12-04T14:45:00.492Z,98369.38
2022-12-04T14:47:26.611Z,98365.72
2022-12-04T14:49:52.704Z,98372.28
2022-12-04T14:52:18.789Z,98371.56
2022-12-04T14:54:44.964Z,98368.31
2022-12-04T14:57:11.056Z,98361.00
2022-12-04T14:59:37.166Z,98357.69
2022-12-04T15:02:03.266Z,98357.88
2022-12-04T15:04:29.456Z,98361.44
2022-12-04T15:07:00.134Z,98371.97
2022-12-04T15:09:26.612Z,98371.53
2022-12-04T15:11:52.686Z,98378.16
2022-12-04T15:14:18.807Z,98375.69
2022-12-04T15:16:44.917Z,98369.81
2022-12-04T15:19:11.009Z,98370.66
2022-12-04T15:21:37.100Z,98371.28
2022-12-04T15:24:03.694Z,98359.81
2022-12-04T15:26:29.779Z,98353.69
2022-12-04T15:28:55.869Z,98357.25
2022-12-04T15:31:22.050Z,98367.13
2022-12-04T15:33:48.179Z,98366.09
2022-12-04T15:36:14.255Z,98375.59
2022-12-04T15:38:40.372Z,98371.63
2022-12-04T15:41:06.466Z,98373.47
2022-12-04T15:43:32.555Z,98377.00
2022-12-04T15:45:58.699Z,98371.28
2022-12-04T15:48:24.814Z,98376.41
2022-12-04T15:50:50.897Z,98375.69
2022-12-04T15:53:17.010Z,98380.06
2022-12-04T15:55:43.145Z,98382.88
2022-12-04T15:58:09.233Z,98382.63
2022-12-04T16:00:35.337Z,98381.50
2022-12-04T16:03:01.431Z,98387.75
2022-12-04T16:05:27.535Z,98379.75
2022-12-04T16:07:53.685Z,98382.78
2022-12-04T16:10:19.817Z,98380.91
2022-12-04T16:12:45.923Z,98370.69
2022-12-04T16:15:12.037Z,98374.84
2022-12-04T16:17:38.121Z,98376.09
2022-12-04T16:20:04.203Z,98372.34
2022-12-04T16:22:30.300Z,98371.69
2022-12-04T16:24:56.724Z,98370.38
2022-12-04T16:27:22.921Z,98373.16
2022-12-04T16:29:49.042Z,98375.03
2022-12-04T16:32:15.132Z,98386.34
2022-12-04T16:34:41.220Z,98382.34
2022-12-04T16:37:07.319Z,98379.94
2022-12-04T16:39:38.239Z,98392.06
2022-12-04T16:42:07.223Z,98391.22
2022-12-04T16:44:33.342Z,98401.84
2022-12-04T16:46:59.511Z,98402.47
2022-12-04T16:49:25.664Z,98415.53
2022-12-04T16:51:51.772Z,98415.81
2022-12-04T16:54:17.874Z,98423.03
2022-12-04T16:56:43.977Z,98424.16
2022-12-04T16:59:12.466Z,98424.44
2022-12-04T17:01:38.797Z,98425.81
2022-12-04T17:04:04.977Z,98428.44
2022-12-04T17:06:31.117Z,98422.81
2022-12-04T17:08:57.209Z,98415.19
2022-12-04T17:11:23.305Z,98422.81
2022-12-04T17:13:49.417Z,98438.22
2022-12-04T17:16:16.846Z,98426.47
2022-12-04T17:18:44.607Z,98422.72
2022-12-04T17:21:10.714Z,98421.16
2022-12-04T17:23:36.812Z,98422.47
2022-12-04T17:26:02.914Z,98424.03
2022-12-04T17:28:29.499Z,98423.22
2022-12-04T17:30:55.592Z,98421.66
2022-12-04T17:33:21.696Z,98430.53
2022-12-04T17:35:47.805Z,98419.97
2022-12-04T17:38:13.901Z,98425.31
2022-12-04T17:40:39.996Z,98420.94
2022-12-04T17:43:06.097Z,98426.47
2022-12-04T17:45:32.195Z,98418.63
2022-12-04T17:47:58.291Z,98428.84
2022-12-04T17:50:24.386Z,98425.50
2022-12-04T17:52:50.503Z,98415.06
2022-12-04T17:55:16.613Z,98426.97
2022-12-04T17:57:42.730Z,98409.53
2022-12-04T18:00:08.810Z,98405.16
2022-12-04T18:02:34.929Z,98405.16
2022-12-04T18:05:01.134Z,98403.00
2022-12-04T18:07:27.219Z,98395.59
2022-12-04T18:09:53.305Z,98400.88
2022-12-04T18:12:19.416Z,98408.63
2022-12-04T18:14:45.518Z,98423.72
2022-12-04T18:17:11.643Z,98415.16
2022-12-04T18:19:37.753Z,98411.81
2022-12-04T18:22:03.836Z,98407.94
2022-12-04T18:24:29.932Z,98388.13
2022-12-04T18:26:56.058Z,98401.91
2022-12-04T18:29:22.153Z,98408.81
2022-12-04T18:31:48.306Z,98413.16
2022-12-04T18:34:14.483Z,98405.88
2022-12-04T18:36:40.565Z,98403.38
2022-12-04T18:39:06.655Z,98413.72
2022-12-04T18:41:32.751Z,98410.94
2022-12-04T18:43:58.856Z,98417.09
2022-12-04T18:46:24.983Z,98406.38
2022-12-04T18:48:51.169Z,98413.47
2022-12-04T18:51:17.275Z,98405.34
2022-12-04T18:53:43.380Z,98416.91
2022-12-04T18:56:09.482Z,98405.75
2022-12-04T18:58:35.576Z,98412.41
2022-12-04T19:01:01.696Z,98415.44
2022-12-04T19:03:27.854Z,98407.19
2022-12-04T19:05:53.968Z,98409.50
2022-12-04T19:08:20.162Z,98407.81
2022-12-04T19:10:46.328Z,98411.69
2022-12-04T19:13:12.413Z,98415.34
2022-12-04T19:15:38.516Z,98411.78
2022-12-04T19:18:04.629Z,98402.28
2022-12-04T19:20:30.723Z,98415.53
2022-12-04T19:22:56.807Z,98410.66
2022-12-04T19:25:22.912Z,98408.03
2022-12-04T19:27:48.991Z,98404.03
2022-12-04T19:30:15.081Z,98412.53
2022-12-04T19:32:41.182Z,98412.31
2022-12-04T19:35:07.277Z,98415.03
2022-12-04T19:37:35.851Z,98416.97
2022-12-04T19:40:05.811Z,98414.28
2022-12-04T19:42:31.916Z,98416.06
2022-12-04T19:44:58.028Z,98425.44
2022-12-04T19:47:24.163Z,98418.44
2022-12-04T19:49:50.263Z,98425.13
2022-12-04T19:52:16.359Z,98429.31
2022-12-04T19:54:42.455Z,98423.03
2022-12-04T19:57:08.554Z,98430.94
2022-12-04T19:59:37.646Z,98435.97
2022-12-04T20:02:05.778Z,98437.41
2022-12-04T20:04:31.954Z,98436.19
2022-12-04T20:06:58.057Z,98441.38
2022-12-04T20:09:24.456Z,98438.06
2022-12-04T20:11:50.548Z,98437.22
2022-12-04T20:14:16.638Z,98442.34
2022-12-04T20:16:42.840Z,98438.16
2022-12-04T20:19:08.992Z,98442.44
2022-12-04T20:21:35.082Z,98439.50
2022-12-04T20:24:01.197Z,98433.69
2022-12-04T20:26:27.301Z,98431.59
2022-12-04T20:28:53.383Z,98433.56
2022-12-04T20:31:19.598Z,98423.44
2022-12-04T20:33:45.736Z,98427.44
2022-12-04T20:36:11.831Z,98421.78
2022-12-04T20:38:39.455Z,98426.56
2022-12-04T20:41:05.552Z,98427.31
2022-12-04T20:43:31.651Z,98419.28
2022-12-04T20:45:57.792Z,98417.72
2022-12-04T20:48:23.888Z,98412.53
2022-12-04T20:50:49.996Z,98411.78
2022-12-04T20:53:16.133Z,98417.28
2022-12-04T20:55:42.210Z,98405.44
2022-12-04T20:58:08.310Z,98407.09
2022-12-04T21:00:34.433Z,98410.22
2022-12-04T21:03:00.618Z,98406.56
2022-12-04T21:05:26.730Z,98406.44
2022-12-04T21:07:52.911Z,98405.84
2022-12-04T21:10:19.060Z,98403.84
2022-12-04T21:12:45.164Z,98410.53
2022-12-04T21:15:11.335Z,98399.59
2022-12-04T21:17:37.436Z,98390.13
2022-12-04T21:20:07.617Z,98399.59
2022-12-04T21:22:34.230Z,98389.28
2022-12-04T21:25:00.327Z,98394.25
2022-12-04T21:27:26.431Z,98396.88
2022-12-04T21:29:52.550Z,98392.41
2022-12-04T21:32:18.644Z,98385.41
2022-12-04T21:34:44.744Z,98400.44
2022-12-04T21:37:10.966Z,98401.88
2022-12-04T21:39:37.045Z,98398.88
2022-12-04T21:42:03.146Z,98406.38
2022-12-04T21:44:29.300Z,98403.44
2022-12-04T21:46:55.531Z,98404.31
2022-12-04T21:49:21.697Z,98400.84
2022-12-04T21:51:57.180Z,98404.91
2022-12-04T21:54:24.009Z,98409.31
2022-12-04T21:56:50.118Z,98410.22
2022-12-04T21:59:16.206Z,98415.22
2022-12-04T22:01:42.396Z,98408.25
2022-12-04T22:04:08.555Z,98407.31
2022-12-04T22:06:34.651Z,98419.28
2022-12-04T22:09:00.735Z,98422.41
2022-12-04T22:11:26.854Z,98418.69
2022-12-04T22:13:52.954Z,98427.84
2022-12-04T22:16:19.101Z,98422.19
2022-12-04T22:18:45.263Z,98416.16
2022-12-04T22:21:11.339Z,98422.00
2022-12-04T22:23:37.466Z,98424.28
2022-12-04T22:26:03.584Z,98430.75
2022-12-04T22:28:29.670Z,98420.34
2022-12-04T22:30:55.827Z,98432.75
2022-12-04T22:33:21.947Z,98434.63
2022-12-04T22:35:48.039Z,98431.47
2022-12-04T22:38:14.144Z,98436.16
2022-12-04T22:40:40.284Z,98444.19
2022-12-04T22:43:06.375Z,98442.75
2022-12-04T22:45:32.470Z,98445.03
2022-12-04T22:47:58.585Z,98443.38
2022-12-04T22:50:24.700Z,98447.03
2022-12-04T22:52:50.787Z,98441.91
2022-12-04T22:55:16.901Z,98448.47
2022-12-04T22:57:42.997Z,98446.91
2022-12-04T23:00:09.083Z,98448.59
2022-12-04T23:02:35.210Z,98449.84
2022-12-04T23:05:01.433Z,98446.81
2022-12-04T23:07:27.581Z,98451.09
2022-12-04T23:09:53.698Z,98445.97
2022-12-04T23:12:19.786Z,98444.19
2022-12-04T23:14:45.879Z,98444.50
2022-12-04T23:17:12.055Z,98431.38
2022-12-04T23:19:38.216Z,98444.63
2022-12-04T23:22:04.312Z,98436.69
2022-12-04T23:24:30.475Z,98437.66
2022-12-04T23:26:56.556Z,98444.94
2022-12-04T23:29:51.583Z,98441.81
2022-12-04T23:32:09.262Z,98447.53
2022-12-04T23:34:35.356Z,98447.84
2022-12-04T23:37:01.448Z,98443.69
2022-12-04T23:39:28.052Z,98447.13
2022-12-04T23:41:54.145Z,98444.81
2022-12-04T23:44:20.232Z,98440.78
2022-12-04T23:46:46.394Z,98440.34
2022-12-04T23:49:12.541Z,98447.44
2022-12-04T23:51:38.629Z,98438.69
2022-12-04T23:54:04.732Z,98452.13
2022-12-04T23:56:30.831Z,98449.28
2022-12-04T23:58:56.926Z,98448.91
